createdAt,value
2019-05-14T00:02:57.907Z,49.20
2019-05-14T00:08:22.099Z,49.20
2019-05-14T00:13:46.110Z,49.15
2019-05-14T00:19:11.189Z,49.39
2019-05-14T00:24:35.019Z,49.77
2019-05-14T00:29:57.855Z,49.75
2019-05-14T00:35:21.663Z,50.09
2019-05-14T00:40:44.502Z,49.63
2019-05-14T00:46:07.571Z,49.41
2019-05-14T00:51:31.841Z,49.27
2019-05-14T00:56:55.270Z,49.78
2019-05-14T01:02:18.275Z,49.98
2019-05-14T01:07:42.299Z,49.67
2019-05-14T01:13:06.558Z,50.58
2019-05-14T01:18:32.269Z,50.63
2019-05-14T01:23:54.904Z,50.88
2019-05-14T01:29:18.338Z,51.19
2019-05-14T01:34:42.332Z,51.21
2019-05-14T01:40:07.397Z,51.69
2019-05-14T01:45:31.698Z,51.91
2019-05-14T01:50:55.262Z,52.31
2019-05-14T01:56:18.536Z,52.69
2019-05-14T02:01:42.223Z,52.75
2019-05-14T02:07:05.470Z,52.93
2019-05-14T02:12:31.386Z,53.41
2019-05-14T02:17:53.674Z,53.63
2019-05-14T02:23:16.966Z,54.15
2019-05-14T02:28:42.022Z,54.55
2019-05-14T02:34:05.514Z,54.99
2019-05-14T02:39:29.180Z,54.64
2019-05-14T02:44:52.250Z,55.82
2019-05-14T02:50:19.955Z,56.04
2019-05-14T02:55:41.388Z,55.97
2019-05-14T03:01:04.187Z,56.95
2019-05-14T03:06:29.147Z,57.29
2019-05-14T03:11:52.679Z,57.80
2019-05-14T03:17:19.549Z,58.60
2019-05-14T03:22:54.860Z,58.80
2019-05-14T03:28:09.009Z,59.85
2019-05-14T03:33:33.307Z,60.13
2019-05-14T03:38:55.305Z,60.58
2019-05-14T03:44:19.991Z,61.65
2019-05-14T03:49:43.648Z,61.25
2019-05-14T03:55:09.484Z,62.02
2019-05-14T04:00:50.997Z,62.49
2019-05-14T04:06:18.997Z,62.43
2019-05-14T04:11:42.700Z,62.83
2019-05-14T04:17:11.230Z,63.40
2019-05-14T04:22:33.772Z,63.84
2019-05-14T04:27:59.799Z,63.59
2019-05-14T04:33:29.914Z,63.84
2019-05-14T04:38:55.185Z,63.82
2019-05-14T04:44:18.947Z,63.74
2019-05-14T04:49:41.009Z,63.49
2019-05-14T04:55:09.037Z,63.30
2019-05-14T05:00:31.166Z,62.72
2019-05-14T05:05:54.829Z,62.10
2019-05-14T05:11:21.229Z,62.46
2019-05-14T05:16:43.014Z,62.66
2019-05-14T05:22:08.033Z,62.41
2019-05-14T05:27:31.677Z,62.93
2019-05-14T05:32:54.851Z,64.13
2019-05-14T05:38:18.494Z,64.43
2019-05-14T05:43:41.874Z,63.60
2019-05-14T05:49:05.248Z,64.03
2019-05-14T05:54:29.343Z,64.30
2019-05-14T05:59:53.189Z,64.04
2019-05-14T06:05:18.609Z,63.91
2019-05-14T06:10:41.141Z,64.12
2019-05-14T06:16:04.542Z,63.86
2019-05-14T06:21:29.277Z,63.89
2019-05-14T06:26:53.359Z,62.20
2019-05-14T06:32:18.667Z,62.22
2019-05-14T06:37:41.796Z,61.70
2019-05-14T06:43:04.853Z,62.63
2019-05-14T06:48:34.471Z,63.71
2019-05-14T06:53:53.539Z,62.73
2019-05-14T06:59:18.234Z,62.62
2019-05-14T07:04:41.809Z,61.47
2019-05-14T07:10:09.029Z,60.16
2019-05-14T07:15:31.464Z,59.83
2019-05-14T07:20:55.190Z,58.71
2019-05-14T07:26:19.294Z,59.02
2019-05-14T07:31:42.337Z,59.15
2019-05-14T07:37:09.279Z,57.75
2019-05-14T07:42:32.202Z,57.30
2019-05-14T07:47:57.933Z,55.47
2019-05-14T07:53:33.984Z,54.41
2019-05-14T07:58:46.163Z,53.62
2019-05-14T08:04:10.786Z,53.32
2019-05-14T08:09:34.385Z,53.14
2019-05-14T08:15:14.330Z,52.65
2019-05-14T08:20:23.384Z,49.93
2019-05-14T08:25:48.096Z,48.92
2019-05-14T08:31:11.970Z,47.99
2019-05-14T08:36:37.818Z,46.41
2019-05-14T08:42:04.053Z,46.65
2019-05-14T08:47:24.810Z,48.33
2019-05-14T08:52:48.520Z,45.64
2019-05-14T08:58:13.933Z,45.25
2019-05-14T09:03:35.963Z,46.70
2019-05-14T09:08:59.776Z,46.34
2019-05-14T09:14:23.036Z,44.19
2019-05-14T09:20:01.027Z,43.43
2019-05-14T09:25:11.206Z,42.84
2019-05-14T09:30:34.258Z,43.02
2019-05-14T09:36:13.758Z,42.36
2019-05-14T09:41:22.833Z,41.07
2019-05-14T09:46:46.317Z,40.91
2019-05-14T09:52:10.037Z,40.39
2019-05-14T09:57:33.624Z,38.85
2019-05-14T10:02:59.492Z,37.27
2019-05-14T10:08:21.444Z,37.07
2019-05-14T10:13:45.018Z,38.71
2019-05-14T10:19:08.431Z,40.74
2019-05-14T10:24:31.711Z,41.09
2019-05-14T10:29:55.093Z,37.88
2019-05-14T10:35:19.155Z,36.83
2019-05-14T10:40:42.254Z,37.84
2019-05-14T10:46:05.633Z,37.63
2019-05-14T10:51:28.805Z,38.01
2019-05-14T10:56:52.005Z,37.56
2019-05-14T11:02:15.541Z,36.52
2019-05-14T11:07:41.772Z,36.63
2019-05-14T11:13:04.294Z,36.70
2019-05-14T11:18:29.108Z,36.48
2019-05-14T11:23:52.632Z,36.15
2019-05-14T11:29:18.387Z,33.82
2019-05-14T11:34:41.021Z,30.11
2019-05-14T11:40:08.724Z,28.75
2019-05-14T11:45:32.104Z,30.83
2019-05-14T11:50:55.459Z,29.86
2019-05-14T11:56:19.634Z,31.92
2019-05-14T12:01:43.099Z,32.33
2019-05-14T12:07:05.903Z,33.27
2019-05-14T12:12:29.535Z,33.59
2019-05-14T12:17:52.893Z,31.67
2019-05-14T12:23:16.316Z,31.08
2019-05-14T12:28:39.584Z,32.22
2019-05-14T12:34:02.930Z,33.24
2019-05-14T12:39:26.269Z,33.28
2019-05-14T12:44:49.929Z,32.91
2019-05-14T12:50:14.013Z,32.21
2019-05-14T12:55:39.978Z,31.44
2019-05-14T13:01:01.902Z,26.40
2019-05-14T13:06:24.768Z,26.86
2019-05-14T13:11:48.172Z,26.81
2019-05-14T13:17:11.336Z,27.72
2019-05-14T13:22:43.753Z,27.90
2019-05-14T13:27:59.564Z,28.34
2019-05-14T13:33:22.163Z,28.57
2019-05-14T13:38:48.814Z,26.21
2019-05-14T13:44:24.067Z,25.73
2019-05-14T13:49:35.444Z,28.42
2019-05-14T13:54:58.423Z,29.51
2019-05-14T14:00:22.283Z,29.79
2019-05-14T14:05:45.328Z,28.64
2019-05-14T14:11:12.644Z,28.69
2019-05-14T14:16:33.216Z,27.58
2019-05-14T14:21:59.024Z,28.28
2019-05-14T14:27:21.246Z,29.17
2019-05-14T14:32:44.344Z,28.88
2019-05-14T14:38:08.720Z,27.32
2019-05-14T14:43:31.713Z,26.38
2019-05-14T14:48:57.806Z,28.11
2019-05-14T14:54:19.859Z,28.89
2019-05-14T14:59:43.412Z,28.17
2019-05-14T15:05:12.812Z,28.70
2019-05-14T15:10:34.484Z,28.40
2019-05-14T15:16:00.826Z,29.12
2019-05-14T15:21:22.270Z,28.44
2019-05-14T15:26:45.952Z,29.65
2019-05-14T15:32:09.435Z,29.46
2019-05-14T15:37:32.603Z,29.28
2019-05-14T15:43:01.597Z,29.39
2019-05-14T15:48:20.649Z,30.13
2019-05-14T15:54:02.685Z,30.24
2019-05-14T15:59:08.809Z,29.45
2019-05-14T16:04:32.741Z,28.94
2019-05-14T16:09:56.781Z,29.58
2019-05-14T16:15:20.374Z,29.41
2019-05-14T16:20:43.711Z,29.15
2019-05-14T16:26:08.890Z,28.72
2019-05-14T16:31:32.805Z,28.71
2019-05-14T16:36:58.451Z,29.27
2019-05-14T16:42:21.534Z,29.37
2019-05-14T16:47:45.024Z,29.71
2019-05-14T16:53:11.588Z,30.53
2019-05-14T16:58:32.661Z,30.48
2019-05-14T17:03:56.300Z,29.72
2019-05-14T17:09:19.767Z,30.21
2019-05-14T17:14:43.327Z,30.09
2019-05-14T17:20:08.551Z,29.67
2019-05-14T17:25:31.284Z,29.82
2019-05-14T17:30:54.868Z,30.88
2019-05-14T17:36:18.746Z,30.90
2019-05-14T17:41:42.599Z,31.38
2019-05-14T17:47:05.931Z,32.17
2019-05-14T17:52:30.288Z,32.44
2019-05-14T17:57:57.979Z,32.59
2019-05-14T18:03:18.590Z,32.80
2019-05-14T18:08:42.278Z,33.05
2019-05-14T18:14:11.960Z,33.37
2019-05-14T18:19:33.066Z,33.63
2019-05-14T18:24:59.098Z,33.67
2019-05-14T18:30:21.306Z,33.51
2019-05-14T18:35:47.511Z,33.20
2019-05-14T18:41:10.017Z,33.16
2019-05-14T18:46:33.488Z,33.00
2019-05-14T18:51:59.119Z,33.21
2019-05-14T18:57:21.324Z,33.38
2019-05-14T19:02:44.560Z,33.38
2019-05-14T19:08:08.231Z,33.92
2019-05-14T19:13:32.549Z,34.12
2019-05-14T19:18:58.367Z,34.06
2019-05-14T19:24:20.897Z,34.49
2019-05-14T19:29:44.119Z,34.53
2019-05-14T19:35:08.730Z,34.49
2019-05-14T19:40:32.451Z,34.81
2019-05-14T19:45:55.392Z,34.76
2019-05-14T19:51:18.897Z,34.99
2019-05-14T19:56:55.514Z,34.96
2019-05-14T20:02:09.552Z,35.21
2019-05-14T20:07:32.358Z,35.38
2019-05-14T20:12:56.358Z,35.52
2019-05-14T20:18:23.322Z,35.56
2019-05-14T20:23:48.090Z,35.51
2019-05-14T20:29:13.061Z,35.99
2019-05-14T20:34:36.317Z,35.91
2019-05-14T20:39:59.632Z,36.00
2019-05-14T20:45:23.168Z,36.49
2019-05-14T20:50:46.650Z,36.91
2019-05-14T20:56:10.030Z,37.40
2019-05-14T21:01:33.532Z,37.52
2019-05-14T21:06:58.741Z,37.65
2019-05-14T21:12:21.557Z,37.46
2019-05-14T21:17:45.167Z,38.14
2019-05-14T21:23:08.979Z,38.29
2019-05-14T21:28:32.778Z,38.50
2019-05-14T21:33:58.533Z,38.80
2019-05-14T21:39:21.231Z,39.22
2019-05-14T21:44:44.517Z,39.30
2019-05-14T21:50:09.068Z,39.59
2019-05-14T21:55:32.918Z,40.21
2019-05-14T22:00:59.248Z,40.59
2019-05-14T22:06:21.465Z,40.62
2019-05-14T22:11:44.358Z,41.07
2019-05-14T22:17:08.079Z,41.44
2019-05-14T22:22:31.532Z,41.67
2019-05-14T22:28:10.668Z,41.80
2019-05-14T22:33:19.825Z,42.46
2019-05-14T22:38:42.672Z,42.51
2019-05-14T22:44:05.993Z,43.29
2019-05-14T22:49:28.859Z,43.68
2019-05-14T22:54:51.795Z,44.07
2019-05-14T23:00:15.797Z,43.92
2019-05-14T23:05:39.474Z,44.69
2019-05-14T23:11:03.029Z,44.88
2019-05-14T23:16:34.458Z,45.25
2019-05-14T23:21:51.702Z,45.35
2019-05-14T23:27:15.064Z,45.40
2019-05-14T23:32:38.776Z,45.75
2019-05-14T23:38:01.624Z,45.90
2019-05-14T23:43:25.269Z,46.08
2019-05-14T23:48:48.974Z,46.02
2019-05-14T23:54:12.436Z,46.35
2019-05-14T23:59:35.740Z,46.42
